createdAt,value
2022-09-10T00:01:55.434Z,100343.44
2022-09-10T00:05:02.283Z,100339.00
2022-09-10T00:08:07.063Z,100337.28
2022-09-10T00:11:11.861Z,100331.06
2022-09-10T00:14:18.898Z,100325.03
2022-09-10T00:17:24.207Z,100324.19
2022-09-10T00:20:27.460Z,100326.09
2022-09-10T00:23:31.180Z,100319.19
2022-09-10T00:26:38.289Z,100318.66
2022-09-10T00:29:41.248Z,100313.56
2022-09-10T00:32:49.648Z,100310.34
2022-09-10T00:35:52.606Z,100299.88
2022-09-10T00:38:59.662Z,100304.88
2022-09-10T00:42:02.671Z,100307.66
2022-09-10T00:45:07.329Z,100307.66
2022-09-10T00:48:19.226Z,100299.94
2022-09-10T00:51:22.175Z,100301.31
2022-09-10T00:54:28.171Z,100300.50
2022-09-10T00:57:31.206Z,100299.97
2022-09-10T01:00:34.664Z,100294.34
2022-09-10T01:03:40.516Z,100293.22
2022-09-10T01:06:46.297Z,100297.22
2022-09-10T01:09:49.511Z,100297.81
2022-09-10T01:13:18.973Z,100284.03
2022-09-10T01:16:31.812Z,100283.06
2022-09-10T01:20:32.219Z,100286.50
2022-09-10T01:24:30.989Z,100286.22
2022-09-10T01:27:43.391Z,100283.72
2022-09-10T01:30:52.476Z,100292.47
2022-09-10T01:34:03.267Z,100293.72
2022-09-10T01:37:12.225Z,100289.72
2022-09-10T01:40:17.695Z,100283.13
2022-09-10T01:43:23.234Z,100280.53
2022-09-10T01:46:44.417Z,100279.41
2022-09-10T01:50:06.103Z,100275.53
2022-09-10T01:53:31.119Z,100282.16
2022-09-10T01:56:43.546Z,100273.06
2022-09-10T01:59:56.419Z,100284.09
2022-09-10T02:03:06.723Z,100274.31
2022-09-10T02:06:16.807Z,100275.72
2022-09-10T02:09:21.001Z,100270.78
2022-09-10T02:12:24.782Z,100269.81
2022-09-10T02:15:44.651Z,100273.41
2022-09-10T02:18:56.326Z,100277.84
2022-09-10T02:22:00.963Z,100277.84
2022-09-10T02:25:09.835Z,100286.25
2022-09-10T02:28:14.347Z,100288.16
2022-09-10T02:31:19.609Z,100271.53
2022-09-10T02:34:23.203Z,100276.75
2022-09-10T02:37:26.608Z,100272.34
2022-09-10T02:40:31.815Z,100281.16
2022-09-10T02:43:38.058Z,100282.81
2022-09-10T02:46:42.330Z,100272.19
2022-09-10T02:49:45.816Z,100286.41
2022-09-10T02:52:51.440Z,100284.75
2022-09-10T02:55:55.193Z,100280.34
2022-09-10T02:58:58.326Z,100276.06
2022-09-10T03:02:04.052Z,100277.88
2022-09-10T03:05:08.371Z,100277.31
2022-09-10T03:08:11.683Z,100280.47
2022-09-10T03:11:22.870Z,100273.19
2022-09-10T03:14:25.859Z,100264.94
2022-09-10T03:17:30.219Z,100265.34
2022-09-10T03:20:33.732Z,100265.19
2022-09-10T03:23:37.509Z,100258.97
2022-09-10T03:26:41.491Z,100261.47
2022-09-10T03:29:45.262Z,100252.81
2022-09-10T03:32:51.480Z,100248.50
2022-09-10T03:35:55.064Z,100256.66
2022-09-10T03:39:03.343Z,100251.00
2022-09-10T03:42:08.205Z,100246.59
2022-09-10T03:45:13.023Z,100238.47
2022-09-10T03:48:17.938Z,100239.84
2022-09-10T03:51:21.258Z,100237.22
2022-09-10T03:54:24.244Z,100238.75
2022-09-10T03:57:27.767Z,100232.00
2022-09-10T04:00:30.797Z,100230.19
2022-09-10T04:03:35.435Z,100221.69
2022-09-10T04:06:40.189Z,100226.09
2022-09-10T04:09:43.158Z,100226.09
2022-09-10T04:12:46.487Z,100225.25
2022-09-10T04:15:49.881Z,100226.34
2022-09-10T04:18:55.413Z,100235.72
2022-09-10T04:21:58.497Z,100239.56
2022-09-10T04:25:01.812Z,100238.31
2022-09-10T04:28:06.166Z,100241.50
2022-09-10T04:31:10.332Z,100235.56
2022-09-10T04:34:15.616Z,100236.13
2022-09-10T04:37:19.831Z,100224.44
2022-09-10T04:40:24.282Z,100240.81
2022-09-10T04:43:28.265Z,100236.13
2022-09-10T04:46:31.911Z,100228.16
2022-09-10T04:49:37.497Z,100232.16
2022-09-10T04:52:41.280Z,100237.22
2022-09-10T04:55:46.432Z,100229.38
2022-09-10T04:58:49.476Z,100237.91
2022-09-10T05:01:52.568Z,100232.56
2022-09-10T05:04:56.919Z,100236.25
2022-09-10T05:08:00.656Z,100232.00
2022-09-10T05:11:05.509Z,100229.38
2022-09-10T05:14:09.620Z,100243.28
2022-09-10T05:17:12.646Z,100244.09
2022-09-10T05:20:17.128Z,100239.03
2022-09-10T05:23:27.205Z,100235.03
2022-09-10T05:26:30.982Z,100233.91
2022-09-10T05:29:34.761Z,100226.91
2022-09-10T05:32:40.054Z,100226.19
2022-09-10T05:35:44.747Z,100225.53
2022-09-10T05:38:47.916Z,100234.19
2022-09-10T05:41:52.252Z,100231.84
2022-09-10T05:44:55.380Z,100217.78
2022-09-10T05:47:58.378Z,100222.88
2022-09-10T05:51:03.106Z,100220.66
2022-09-10T05:54:06.568Z,100219.94
2022-09-10T05:57:09.528Z,100238.22
2022-09-10T06:00:15.687Z,100250.53
2022-09-10T06:03:25.463Z,100250.38
2022-09-10T06:06:34.873Z,100253.84
2022-09-10T06:09:43.032Z,100246.63
2022-09-10T06:12:56.598Z,100260.97
2022-09-10T06:16:00.796Z,100270.88
2022-09-10T06:19:04.903Z,100266.72
2022-09-10T06:22:11.972Z,100285.44
2022-09-10T06:25:17.516Z,100297.84
2022-09-10T06:28:20.651Z,100305.81
2022-09-10T06:31:23.953Z,100316.56
2022-09-10T06:34:28.193Z,100317.44
2022-09-10T06:37:34.424Z,100328.63
2022-09-10T06:40:40.093Z,100337.72
2022-09-10T06:43:43.949Z,100347.84
2022-09-10T06:47:39.096Z,100356.91
2022-09-10T06:50:17.408Z,100372.44
2022-09-10T06:53:24.928Z,100384.00
2022-09-10T06:56:29.408Z,100393.22
2022-09-10T06:59:35.026Z,100412.00
2022-09-10T07:02:38.814Z,100413.63
2022-09-10T07:05:43.343Z,100434.56
2022-09-10T07:08:47.693Z,100427.81
2022-09-10T07:11:50.725Z,100424.09
2022-09-10T07:14:56.046Z,100456.59
2022-09-10T07:17:59.395Z,100452.38
2022-09-10T07:21:10.498Z,100451.94
2022-09-10T07:24:21.377Z,100463.88
2022-09-10T07:27:39.302Z,100452.47
2022-09-10T07:30:43.178Z,100471.38
2022-09-10T07:33:49.191Z,100466.75
2022-09-10T07:36:53.139Z,100481.69
2022-09-10T07:39:58.834Z,100493.63
2022-09-10T07:43:02.131Z,100491.38
2022-09-10T07:46:05.516Z,100492.56
2022-09-10T07:49:10.892Z,100503.66
2022-09-10T07:52:17.358Z,100512.47
2022-09-10T07:55:26.829Z,100516.78
2022-09-10T07:58:31.686Z,100510.44
2022-09-10T08:01:34.971Z,100518.41
2022-09-10T08:04:39.598Z,100536.50
2022-09-10T08:07:46.722Z,100542.03
2022-09-10T08:10:51.318Z,100532.69
2022-09-10T08:13:56.839Z,100552.47
2022-09-10T08:17:03.636Z,100567.38
2022-09-10T08:20:11.635Z,100548.72
2022-09-10T08:23:20.082Z,100575.44
2022-09-10T08:26:26.278Z,100583.09
2022-09-10T08:29:29.888Z,100607.19
2022-09-10T08:32:35.979Z,100608.88
2022-09-10T08:35:39.664Z,100623.09
2022-09-10T08:38:44.083Z,100615.53
2022-09-10T08:41:56.729Z,100608.94
2022-09-10T08:45:07.829Z,100613.88
2022-09-10T08:48:18.745Z,100625.28
2022-09-10T08:51:27.837Z,100665.53
2022-09-10T08:54:38.918Z,100651.88
2022-09-10T08:57:48.546Z,100663.09
2022-09-10T09:00:58.053Z,100674.16
2022-09-10T09:04:11.137Z,100660.66
2022-09-10T09:07:19.627Z,100672.16
2022-09-10T09:10:34.578Z,100688.84
2022-09-10T09:13:59.408Z,100685.09
2022-09-10T09:17:28.337Z,100686.00
2022-09-10T09:20:46.432Z,100700.22
2022-09-10T09:24:12.707Z,100687.38
2022-09-10T09:27:22.491Z,100692.47
2022-09-10T09:30:37.143Z,100699.13
2022-09-10T09:33:42.583Z,100695.72
2022-09-10T09:36:51.273Z,100694.53
2022-09-10T09:40:08.381Z,100695.19
2022-09-10T09:43:21.317Z,100708.03
2022-09-10T09:46:25.900Z,100696.66
2022-09-10T09:49:33.947Z,100701.16
2022-09-10T09:52:38.740Z,100701.41
2022-09-10T09:55:45.694Z,100705.03
2022-09-10T09:58:50.761Z,100707.97
2022-09-10T10:01:56.410Z,100705.97
2022-09-10T10:05:09.278Z,100704.81
2022-09-10T10:08:31.681Z,100697.75
2022-09-10T10:11:49.754Z,100700.28
2022-09-10T10:14:52.702Z,100693.44
2022-09-10T10:17:57.351Z,100681.28
2022-09-10T10:21:18.709Z,100688.22
2022-09-10T10:24:32.591Z,100681.69
2022-09-10T10:27:38.033Z,100683.38
2022-09-10T10:30:42.185Z,100686.38
2022-09-10T10:33:56.262Z,100687.06
2022-09-10T10:37:09.267Z,100685.00
2022-09-10T10:40:24.649Z,100693.50
2022-09-10T10:43:41.685Z,100693.91
2022-09-10T10:46:55.810Z,100692.38
2022-09-10T10:50:22.217Z,100680.75
2022-09-10T10:53:47.163Z,100683.25
2022-09-10T10:57:04.165Z,100689.09
2022-09-10T11:00:11.170Z,100685.09
2022-09-10T11:03:21.301Z,100691.91
2022-09-10T11:06:31.897Z,100689.44
2022-09-10T11:09:40.931Z,100686.66
2022-09-10T11:12:49.867Z,100692.16
2022-09-10T11:15:59.749Z,100683.00
2022-09-10T11:19:11.889Z,100680.84
2022-09-10T11:22:22.735Z,100681.69
2022-09-10T11:25:30.481Z,100680.38
2022-09-10T11:28:38.430Z,100668.66
2022-09-10T11:31:48.922Z,100676.06
2022-09-10T11:34:59.640Z,100675.03
2022-09-10T11:38:13.355Z,100674.19
2022-09-10T11:41:22.068Z,100682.03
2022-09-10T11:44:42.002Z,100689.69
2022-09-10T11:47:56.227Z,100674.44
2022-09-10T11:51:03.386Z,100676.75
2022-09-10T11:54:14.459Z,100672.13
2022-09-10T11:57:31.182Z,100665.66
2022-09-10T12:00:49.309Z,100656.66
2022-09-10T12:04:17.183Z,100660.19
2022-09-10T12:07:34.074Z,100658.72
2022-09-10T12:10:47.622Z,100651.06
2022-09-10T12:13:52.528Z,100656.06
2022-09-10T12:17:00.694Z,100660.47
2022-09-10T12:20:06.560Z,100656.34
2022-09-10T12:23:18.418Z,100639.59
2022-09-10T12:26:23.596Z,100641.00
2022-09-10T12:29:34.125Z,100649.44
2022-09-10T12:32:37.904Z,100646.41
2022-09-10T12:35:47.129Z,100647.34
2022-09-10T12:39:23.792Z,100644.03
2022-09-10T12:42:34.562Z,100645.06
2022-09-10T12:46:03.657Z,100648.75
2022-09-10T12:49:13.355Z,100636.22
2022-09-10T12:52:26.328Z,100629.94
2022-09-10T12:55:42.687Z,100627.16
2022-09-10T12:59:06.940Z,100630.03
2022-09-10T13:02:30.317Z,100618.56
2022-09-10T13:05:48.344Z,100626.34
2022-09-10T13:08:51.482Z,100617.97
2022-09-10T13:11:57.960Z,100606.47
2022-09-10T13:15:03.693Z,100604.69
2022-09-10T13:18:27.133Z,100610.66
2022-09-10T13:21:53.908Z,100604.56
2022-09-10T13:25:04.029Z,100605.69
2022-09-10T13:29:01.122Z,100610.41
2022-09-10T13:32:12.368Z,100604.75
2022-09-10T13:35:54.604Z,100590.63
2022-09-10T13:39:20.698Z,100596.19
2022-09-10T13:42:47.302Z,100599.81
2022-09-10T13:45:53.528Z,100607.31
2022-09-10T13:49:08.056Z,100605.81
2022-09-10T13:52:15.712Z,100596.81
2022-09-10T13:55:21.814Z,100597.28
2022-09-10T13:58:28.569Z,100597.59
2022-09-10T14:01:50.384Z,100592.53
2022-09-10T14:04:55.426Z,100605.31
2022-09-10T14:08:03.089Z,100594.63
2022-09-10T14:11:15.701Z,100595.66
2022-09-10T14:14:22.738Z,100581.84
2022-09-10T14:17:30.132Z,100593.59
2022-09-10T14:20:35.918Z,100591.47
2022-09-10T14:23:40.867Z,100600.97
2022-09-10T14:27:19.432Z,100601.78
2022-09-10T14:30:27.420Z,100612.84
2022-09-10T14:33:34.442Z,100603.09
2022-09-10T14:36:37.622Z,100597.72
2022-09-10T14:39:45.439Z,100594.59
2022-09-10T14:42:51.560Z,100597.06
2022-09-10T14:45:55.023Z,100598.06
2022-09-10T14:49:10.942Z,100592.41
2022-09-10T14:52:14.898Z,100581.00
2022-09-10T14:55:18.162Z,100572.53
2022-09-10T14:58:22.724Z,100573.03
2022-09-10T15:01:25.868Z,100580.13
2022-09-10T15:04:31.112Z,100585.91
2022-09-10T15:07:34.197Z,100584.06
2022-09-10T15:10:37.116Z,100589.34
2022-09-10T15:13:43.811Z,100584.16
2022-09-10T15:16:46.841Z,100595.66
2022-09-10T15:19:49.888Z,100613.81
2022-09-10T15:22:52.990Z,100608.56
2022-09-10T15:25:58.493Z,100602.41
2022-09-10T15:29:02.774Z,100597.91
2022-09-10T15:32:06.152Z,100598.03
2022-09-10T15:35:09.827Z,100598.97
2022-09-10T15:38:14.521Z,100607.75
2022-09-10T15:41:17.509Z,100599.41
2022-09-10T15:44:22.858Z,100593.78
2022-09-10T15:47:26.944Z,100582.97
2022-09-10T15:50:31.305Z,100591.28
2022-09-10T15:53:34.435Z,100588.00
2022-09-10T15:56:37.810Z,100605.56
2022-09-10T15:59:42.063Z,100606.88
2022-09-10T16:02:47.884Z,100615.00
2022-09-10T16:05:50.998Z,100607.06
2022-09-10T16:08:57.582Z,100605.44
2022-09-10T16:12:00.543Z,100599.00
2022-09-10T16:15:05.961Z,100612.25
2022-09-10T16:18:08.915Z,100608.72
2022-09-10T16:21:15.559Z,100592.75
2022-09-10T16:24:18.469Z,100606.78
2022-09-10T16:27:21.777Z,100612.88
2022-09-10T16:30:26.442Z,100609.41
2022-09-10T16:33:29.397Z,100603.22
2022-09-10T16:36:34.976Z,100613.59
2022-09-10T16:39:37.959Z,100613.84
2022-09-10T16:42:40.933Z,100619.50
2022-09-10T16:45:51.957Z,100616.28
2022-09-10T16:48:56.597Z,100627.06
2022-09-10T16:51:59.777Z,100637.13
2022-09-10T16:55:04.431Z,100641.78
2022-09-10T16:58:07.395Z,100639.78
2022-09-10T17:01:11.648Z,100640.22
2022-09-10T17:04:19.744Z,100640.50
2022-09-10T17:07:24.547Z,100631.75
2022-09-10T17:10:27.550Z,100631.28
2022-09-10T17:13:31.187Z,100619.88
2022-09-10T17:16:40.009Z,100617.72
2022-09-10T17:19:42.924Z,100616.72
2022-09-10T17:22:46.585Z,100621.88
2022-09-10T17:25:49.869Z,100605.41
2022-09-10T17:28:54.960Z,100605.94
2022-09-10T17:31:59.263Z,100608.44
2022-09-10T17:35:02.224Z,100608.00
2022-09-10T17:38:06.305Z,100595.66
2022-09-10T17:41:09.267Z,100599.97
2022-09-10T17:44:13.535Z,100605.44
2022-09-10T17:47:17.779Z,100602.31
2022-09-10T17:50:20.782Z,100615.16
2022-09-10T17:53:24.061Z,100613.69
2022-09-10T17:56:28.393Z,100618.16
2022-09-10T17:59:32.154Z,100620.97
2022-09-10T18:02:36.465Z,100616.84
2022-09-10T18:05:40.351Z,100614.69
2022-09-10T18:08:44.352Z,100615.03
2022-09-10T18:11:47.384Z,100631.06
2022-09-10T18:14:50.414Z,100639.66
2022-09-10T18:17:55.642Z,100638.00
2022-09-10T18:21:00.368Z,100647.56
2022-09-10T18:24:06.231Z,100654.34
2022-09-10T18:27:09.230Z,100645.91
2022-09-10T18:30:13.623Z,100653.66
2022-09-10T18:33:18.810Z,100657.13
2022-09-10T18:36:22.173Z,100628.75
2022-09-10T18:39:27.211Z,100619.66
2022-09-10T18:42:30.132Z,100614.38
2022-09-10T18:45:34.247Z,100627.56
2022-09-10T18:48:38.888Z,100619.41
2022-09-10T18:51:42.947Z,100594.84
2022-09-10T18:54:46.807Z,100593.69
2022-09-10T18:57:49.926Z,100592.03
2022-09-10T19:00:58.452Z,100604.88
2022-09-10T19:04:03.492Z,100597.97
2022-09-10T19:07:09.489Z,100580.63
2022-09-10T19:10:25.339Z,100577.19
2022-09-10T19:13:33.434Z,100582.59
2022-09-10T19:16:41.551Z,100568.41
2022-09-10T19:19:47.539Z,100566.53
2022-09-10T19:22:50.493Z,100561.09
2022-09-10T19:25:56.054Z,100550.38
2022-09-10T19:29:01.706Z,100539.47
2022-09-10T19:32:06.522Z,100528.91
2022-09-10T19:35:11.353Z,100517.69
2022-09-10T19:38:34.259Z,100512.06
2022-09-10T19:41:39.991Z,100503.34
2022-09-10T19:44:43.441Z,100501.53
2022-09-10T19:48:03.877Z,100493.63
2022-09-10T19:51:16.487Z,100479.72
2022-09-10T19:54:19.562Z,100467.81
2022-09-10T19:57:22.628Z,100463.31
2022-09-10T20:00:46.019Z,100462.66
2022-09-10T20:04:06.752Z,100457.88
2022-09-10T20:07:31.810Z,100463.88
2022-09-10T20:10:34.796Z,100453.69
2022-09-10T20:13:38.005Z,100459.06
2022-09-10T20:16:44.004Z,100458.88
2022-09-10T20:19:46.982Z,100461.31
2022-09-10T20:22:51.557Z,100460.28
2022-09-10T20:25:54.511Z,100462.19
2022-09-10T20:29:00.670Z,100446.50
2022-09-10T20:32:04.339Z,100445.97
2022-09-10T20:35:08.719Z,100446.31
2022-09-10T20:38:13.148Z,100442.13
2022-09-10T20:41:16.783Z,100436.38
2022-09-10T20:44:20.772Z,100432.22
2022-09-10T20:47:24.889Z,100433.66
2022-09-10T20:50:27.950Z,100428.72
2022-09-10T20:53:37.168Z,100433.91
2022-09-10T20:56:41.216Z,100432.25
2022-09-10T20:59:44.631Z,100426.34
2022-09-10T21:02:48.039Z,100421.38
2022-09-10T21:05:51.051Z,100419.56
2022-09-10T21:08:56.396Z,100417.88
2022-09-10T21:11:59.814Z,100417.38
2022-09-10T21:15:02.818Z,100417.34
2022-09-10T21:18:06.058Z,100430.09
2022-09-10T21:21:11.776Z,100421.56
2022-09-10T21:24:18.167Z,100416.59
2022-09-10T21:27:21.333Z,100407.66
2022-09-10T21:30:24.513Z,100407.44
2022-09-10T21:33:27.777Z,100398.72
2022-09-10T21:36:31.894Z,100413.97
2022-09-10T21:39:36.212Z,100408.72
2022-09-10T21:42:39.201Z,100409.31
2022-09-10T21:45:42.193Z,100410.41
2022-09-10T21:48:45.367Z,100410.63
2022-09-10T21:51:48.810Z,100406.63
2022-09-10T21:54:53.055Z,100403.06
2022-09-10T21:57:55.974Z,100403.34
2022-09-10T22:00:59.623Z,100410.56
2022-09-10T22:04:04.032Z,100404.50
2022-09-10T22:07:07.208Z,100411.66
2022-09-10T22:10:11.622Z,100415.59
2022-09-10T22:13:15.680Z,100408.13
2022-09-10T22:16:20.818Z,100404.78
2022-09-10T22:19:25.830Z,100406.19
2022-09-10T22:22:29.041Z,100413.38
2022-09-10T22:25:35.061Z,100417.28
2022-09-10T22:28:39.213Z,100403.72
2022-09-10T22:31:42.150Z,100380.75
2022-09-10T22:34:46.056Z,100384.59
2022-09-10T22:37:49.025Z,100370.56
2022-09-10T22:40:53.551Z,100374.84
2022-09-10T22:43:57.010Z,100372.59
2022-09-10T22:47:00.483Z,100386.19
2022-09-10T22:50:03.503Z,100385.63
2022-09-10T22:53:06.411Z,100385.06
2022-09-10T22:56:11.962Z,100381.75
2022-09-10T22:59:16.315Z,100393.06
2022-09-10T23:02:19.271Z,100388.97
2022-09-10T23:05:23.283Z,100407.78
2022-09-10T23:08:27.337Z,100403.50
2022-09-10T23:11:33.995Z,100406.97
2022-09-10T23:14:37.400Z,100412.50
2022-09-10T23:17:40.365Z,100398.41
2022-09-10T23:20:44.016Z,100390.16
2022-09-10T23:23:49.004Z,100389.56
2022-09-10T23:26:53.783Z,100391.59
2022-09-10T23:29:57.389Z,100387.91
2022-09-10T23:33:00.364Z,100397.44
2022-09-10T23:36:04.192Z,100395.78
2022-09-10T23:39:09.899Z,100398.97
2022-09-10T23:42:14.228Z,100404.50
2022-09-10T23:45:17.339Z,100395.53
2022-09-10T23:48:20.326Z,100398.44
2022-09-10T23:51:23.685Z,100403.44
2022-09-10T23:54:29.177Z,100405.22
2022-09-10T23:57:33.506Z,100406.63
